createdAt,value
2022-09-23T00:01:10.704Z,18.82
2022-09-23T00:03:41.790Z,18.83
2022-09-23T00:06:17.003Z,18.80
2022-09-23T00:08:44.152Z,18.77
2022-09-23T00:11:16.786Z,18.80
2022-09-23T00:13:45.474Z,18.72
2022-09-23T00:16:14.915Z,18.77
2022-09-23T00:18:42.892Z,18.74
2022-09-23T00:21:12.194Z,18.71
2022-09-23T00:23:40.526Z,18.67
2022-09-23T00:26:08.952Z,18.60
2022-09-23T00:28:36.153Z,18.68
2022-09-23T00:31:08.351Z,18.63
2022-09-23T00:33:34.865Z,18.57
2022-09-23T00:36:06.157Z,18.51
2022-09-23T00:38:34.078Z,18.47
2022-09-23T00:41:01.221Z,18.51
2022-09-23T00:43:41.590Z,18.54
2022-09-23T00:46:10.655Z,18.40
2022-09-23T00:48:39.398Z,18.50
2022-09-23T00:51:09.064Z,18.54
2022-09-23T00:53:36.067Z,18.51
2022-09-23T00:56:07.387Z,18.57
2022-09-23T00:58:37.368Z,18.42
2022-09-23T01:01:04.902Z,18.29
2022-09-23T01:03:31.932Z,18.20
2022-09-23T01:05:59.050Z,18.15
2022-09-23T01:08:27.370Z,18.17
2022-09-23T01:11:17.453Z,18.19
2022-09-23T01:14:09.732Z,18.23
2022-09-23T01:17:16.750Z,18.25
2022-09-23T01:20:03.526Z,18.18
2022-09-23T01:22:43.384Z,18.14
2022-09-23T01:25:27.444Z,18.13
2022-09-23T01:28:12.443Z,18.12
2022-09-23T01:30:44.289Z,18.14
2022-09-23T01:33:28.104Z,18.20
2022-09-23T01:36:03.091Z,18.12
2022-09-23T01:38:42.538Z,18.12
2022-09-23T01:41:15.424Z,17.95
2022-09-23T01:44:12.160Z,17.91
2022-09-23T01:46:48.353Z,17.91
2022-09-23T01:49:27.083Z,17.94
2022-09-23T01:52:44.554Z,17.99
2022-09-23T01:55:20.811Z,18.01
2022-09-23T01:57:55.499Z,17.88
2022-09-23T02:00:24.049Z,17.83
2022-09-23T02:02:59.305Z,17.89
2022-09-23T02:05:29.097Z,17.76
2022-09-23T02:08:09.063Z,17.64
2022-09-23T02:10:45.630Z,17.53
2022-09-23T02:13:24.477Z,17.52
2022-09-23T02:15:56.145Z,17.48
2022-09-23T02:18:33.889Z,17.42
2022-09-23T02:21:06.206Z,17.47
2022-09-23T02:23:44.016Z,17.43
2022-09-23T02:26:29.558Z,17.38
2022-09-23T02:29:05.061Z,17.37
2022-09-23T02:31:49.038Z,17.32
2022-09-23T02:34:19.574Z,17.33
2022-09-23T02:36:50.211Z,17.31
2022-09-23T02:39:20.701Z,17.26
2022-09-23T02:42:05.594Z,17.25
2022-09-23T02:44:32.965Z,17.20
2022-09-23T02:46:59.833Z,17.19
2022-09-23T02:49:31.253Z,17.18
2022-09-23T02:52:04.945Z,17.15
2022-09-23T02:54:33.625Z,17.21
2022-09-23T02:57:02.769Z,17.17
2022-09-23T02:59:30.586Z,17.07
2022-09-23T03:02:17.421Z,17.05
2022-09-23T03:05:18.297Z,17.00
2022-09-23T03:08:16.662Z,16.91
2022-09-23T03:11:05.798Z,16.81
2022-09-23T03:13:53.974Z,16.82
2022-09-23T03:16:35.710Z,16.80
2022-09-23T03:19:41.093Z,16.76
2022-09-23T03:22:13.049Z,16.69
2022-09-23T03:24:44.818Z,16.74
2022-09-23T03:27:23.452Z,16.66
2022-09-23T03:29:53.423Z,16.64
2022-09-23T03:32:23.829Z,16.60
2022-09-23T03:34:54.151Z,16.58
2022-09-23T03:37:40.036Z,16.85
2022-09-23T03:40:12.742Z,17.12
2022-09-23T03:42:40.678Z,16.88
2022-09-23T03:45:13.364Z,16.64
2022-09-23T03:47:40.045Z,16.56
2022-09-23T03:50:06.792Z,16.50
2022-09-23T03:52:33.320Z,16.49
2022-09-23T03:55:00.645Z,16.45
2022-09-23T03:57:27.183Z,16.41
2022-09-23T03:59:53.685Z,16.41
2022-09-23T04:02:21.062Z,16.39
2022-09-23T04:04:47.775Z,16.45
2022-09-23T04:07:14.689Z,16.45
2022-09-23T04:09:41.399Z,16.39
2022-09-23T04:12:08.181Z,16.40
2022-09-23T04:14:35.070Z,16.38
2022-09-23T04:17:02.755Z,16.40
2022-09-23T04:19:29.284Z,16.43
2022-09-23T04:21:55.829Z,16.38
2022-09-23T04:24:22.552Z,16.36
2022-09-23T04:26:54.765Z,16.38
2022-09-23T04:29:22.395Z,16.38
2022-09-23T04:31:49.510Z,16.36
2022-09-23T04:34:17.415Z,16.34
2022-09-23T04:36:45.318Z,16.32
2022-09-23T04:39:12.733Z,16.35
2022-09-23T04:41:39.211Z,16.50
2022-09-23T04:44:05.765Z,16.71
2022-09-23T04:46:33.151Z,16.63
2022-09-23T04:48:59.899Z,16.60
2022-09-23T04:51:27.579Z,16.51
2022-09-23T04:53:55.494Z,16.46
2022-09-23T04:56:25.030Z,16.40
2022-09-23T04:58:52.319Z,16.33
2022-09-23T05:01:23.407Z,16.30
2022-09-23T05:03:51.162Z,16.28
2022-09-23T05:06:17.934Z,16.26
2022-09-23T05:08:53.191Z,16.22
2022-09-23T05:11:20.225Z,16.36
2022-09-23T05:13:51.958Z,16.34
2022-09-23T05:16:19.223Z,16.37
2022-09-23T05:18:48.083Z,16.30
2022-09-23T05:21:17.502Z,16.39
2022-09-23T05:23:48.702Z,16.33
2022-09-23T05:26:15.930Z,16.50
2022-09-23T05:28:42.463Z,16.45
2022-09-23T05:31:19.729Z,16.33
2022-09-23T05:33:56.858Z,16.26
2022-09-23T05:36:25.668Z,16.22
2022-09-23T05:38:52.655Z,16.23
2022-09-23T05:41:23.110Z,16.27
2022-09-23T05:43:51.781Z,16.29
2022-09-23T05:46:20.951Z,16.22
2022-09-23T05:48:48.056Z,16.20
2022-09-23T05:51:30.117Z,16.25
2022-09-23T05:53:58.366Z,16.28
2022-09-23T05:56:27.556Z,16.34
2022-09-23T05:58:55.702Z,16.46
2022-09-23T06:01:27.716Z,16.56
2022-09-23T06:03:56.274Z,16.60
2022-09-23T06:06:35.092Z,16.56
2022-09-23T06:09:02.281Z,16.54
2022-09-23T06:11:33.824Z,16.60
2022-09-23T06:14:03.712Z,16.73
2022-09-23T06:16:33.261Z,16.73
2022-09-23T06:19:05.915Z,16.78
2022-09-23T06:21:35.210Z,16.77
2022-09-23T06:24:02.430Z,16.79
2022-09-23T06:26:33.591Z,16.78
2022-09-23T06:29:01.658Z,16.57
2022-09-23T06:31:28.961Z,16.57
2022-09-23T06:34:06.825Z,16.53
2022-09-23T06:36:43.111Z,16.45
2022-09-23T06:39:10.869Z,16.44
2022-09-23T06:41:38.629Z,16.55
2022-09-23T06:44:05.177Z,16.70
2022-09-23T06:46:31.853Z,16.74
2022-09-23T06:48:59.285Z,16.80
2022-09-23T06:51:25.866Z,16.89
2022-09-23T06:53:52.568Z,17.04
2022-09-23T06:56:21.978Z,16.88
2022-09-23T06:58:48.754Z,16.99
2022-09-23T07:01:17.015Z,17.19
2022-09-23T07:03:45.097Z,17.30
2022-09-23T07:06:12.350Z,17.45
2022-09-23T07:08:42.063Z,17.60
2022-09-23T07:11:13.354Z,17.64
2022-09-23T07:13:41.330Z,17.71
2022-09-23T07:16:09.099Z,17.78
2022-09-23T07:18:37.563Z,17.75
2022-09-23T07:21:08.973Z,17.92
2022-09-23T07:23:37.232Z,17.79
2022-09-23T07:26:04.162Z,17.93
2022-09-23T07:28:30.883Z,17.92
2022-09-23T07:31:00.672Z,17.99
2022-09-23T07:33:33.027Z,18.02
2022-09-23T07:36:04.514Z,17.97
2022-09-23T07:38:31.424Z,18.02
2022-09-23T07:41:03.233Z,18.06
2022-09-23T07:43:32.095Z,18.13
2022-09-23T07:46:00.428Z,18.16
2022-09-23T07:48:30.700Z,18.23
2022-09-23T07:51:00.294Z,18.36
2022-09-23T07:53:27.279Z,18.43
2022-09-23T07:55:55.535Z,18.49
2022-09-23T07:58:22.602Z,18.56
2022-09-23T08:00:53.293Z,18.61
2022-09-23T08:03:20.404Z,18.65
2022-09-23T08:05:47.050Z,18.75
2022-09-23T08:08:14.478Z,18.88
2022-09-23T08:10:41.156Z,19.09
2022-09-23T08:13:07.643Z,18.93
2022-09-23T08:15:34.370Z,19.16
2022-09-23T08:18:01.228Z,19.30
2022-09-23T08:20:47.824Z,19.34
2022-09-23T08:23:16.686Z,19.48
2022-09-23T08:25:46.905Z,19.51
2022-09-23T08:28:17.145Z,19.61
2022-09-23T08:30:44.809Z,19.73
2022-09-23T08:33:12.327Z,19.82
2022-09-23T08:35:39.162Z,19.83
2022-09-23T08:38:06.521Z,19.91
2022-09-23T08:40:41.598Z,20.04
2022-09-23T08:43:16.750Z,20.11
2022-09-23T08:45:45.530Z,20.18
2022-09-23T08:48:16.873Z,20.35
2022-09-23T08:50:48.359Z,20.46
2022-09-23T08:53:26.195Z,20.61
2022-09-23T08:55:55.991Z,20.72
2022-09-23T08:59:00.220Z,20.90
2022-09-23T09:01:46.467Z,20.99
2022-09-23T09:04:28.048Z,21.08
2022-09-23T09:07:35.646Z,21.24
2022-09-23T09:10:06.134Z,21.17
2022-09-23T09:13:07.443Z,21.28
2022-09-23T09:15:44.024Z,21.38
2022-09-23T09:18:20.930Z,21.47
2022-09-23T09:21:12.125Z,21.58
2022-09-23T09:24:00.336Z,21.70
2022-09-23T09:26:34.046Z,21.75
2022-09-23T09:29:23.377Z,21.84
2022-09-23T09:31:51.422Z,21.79
2022-09-23T09:34:29.303Z,21.86
2022-09-23T09:37:12.863Z,21.99
2022-09-23T09:39:39.520Z,21.97
2022-09-23T09:42:06.511Z,21.98
2022-09-23T09:44:45.058Z,22.03
2022-09-23T09:47:17.286Z,22.08
2022-09-23T09:50:02.163Z,22.16
2022-09-23T09:52:29.846Z,22.23
2022-09-23T09:55:17.722Z,22.32
2022-09-23T09:57:52.202Z,22.35
2022-09-23T10:00:21.739Z,22.30
2022-09-23T10:03:02.102Z,22.30
2022-09-23T10:05:50.888Z,22.44
2022-09-23T10:08:35.232Z,22.53
2022-09-23T10:11:06.971Z,22.66
2022-09-23T10:13:33.979Z,22.69
2022-09-23T10:16:03.980Z,22.73
2022-09-23T10:18:38.504Z,22.77
2022-09-23T10:21:26.893Z,22.83
2022-09-23T10:23:58.248Z,22.75
2022-09-23T10:26:37.400Z,22.83
2022-09-23T10:29:39.456Z,22.91
2022-09-23T10:32:25.711Z,22.84
2022-09-23T10:34:59.138Z,22.88
2022-09-23T10:37:32.574Z,22.96
2022-09-23T10:40:19.248Z,22.98
2022-09-23T10:43:07.534Z,23.02
2022-09-23T10:45:57.042Z,23.02
2022-09-23T10:48:49.643Z,23.15
2022-09-23T10:51:38.943Z,23.31
2022-09-23T10:54:37.535Z,23.34
2022-09-23T10:57:33.170Z,23.46
2022-09-23T11:00:12.586Z,23.41
2022-09-23T11:03:01.254Z,23.59
2022-09-23T11:05:51.395Z,23.55
2022-09-23T11:08:34.380Z,23.64
2022-09-23T11:11:19.785Z,23.73
2022-09-23T11:14:24.809Z,23.83
2022-09-23T11:17:09.210Z,23.96
2022-09-23T11:20:03.171Z,24.08
2022-09-23T11:22:54.313Z,24.08
2022-09-23T11:25:24.537Z,24.08
2022-09-23T11:28:07.456Z,24.12
2022-09-23T11:30:44.262Z,24.28
2022-09-23T11:33:25.414Z,24.21
2022-09-23T11:36:14.706Z,24.42
2022-09-23T11:38:46.394Z,24.51
2022-09-23T11:41:33.780Z,24.43
2022-09-23T11:44:13.273Z,24.54
2022-09-23T11:46:48.469Z,24.57
2022-09-23T11:49:17.654Z,24.69
2022-09-23T11:52:13.767Z,24.81
2022-09-23T11:55:22.735Z,25.16
2022-09-23T11:58:25.263Z,25.27
2022-09-23T12:01:03.256Z,25.31
2022-09-23T12:04:20.474Z,25.39
2022-09-23T12:06:54.891Z,25.42
2022-09-23T12:09:53.990Z,25.42
2022-09-23T12:12:29.670Z,25.52
2022-09-23T12:15:17.878Z,25.61
2022-09-23T12:18:06.950Z,25.60
2022-09-23T12:20:36.567Z,25.46
2022-09-23T12:23:31.153Z,25.45
2022-09-23T12:26:02.448Z,25.33
2022-09-23T12:28:45.158Z,25.41
2022-09-23T12:31:15.680Z,25.49
2022-09-23T12:33:53.615Z,25.65
2022-09-23T12:36:35.405Z,25.66
2022-09-23T12:39:04.216Z,25.74
2022-09-23T12:41:43.596Z,25.86
2022-09-23T12:44:13.533Z,25.86
2022-09-23T12:46:44.848Z,25.81
2022-09-23T12:49:35.631Z,25.86
2022-09-23T12:52:10.964Z,25.94
2022-09-23T12:54:38.987Z,25.90
2022-09-23T12:57:13.818Z,25.82
2022-09-23T12:59:54.310Z,25.85
2022-09-23T13:02:37.695Z,25.71
2022-09-23T13:05:39.610Z,25.89
2022-09-23T13:08:16.874Z,25.93
2022-09-23T13:10:49.399Z,26.10
2022-09-23T13:17:04.219Z,26.03
2022-09-23T13:19:35.335Z,26.05
2022-09-23T13:22:09.179Z,25.87
2022-09-23T13:24:40.918Z,25.97
2022-09-23T13:27:33.406Z,25.86
2022-09-23T13:30:03.458Z,25.86
2022-09-23T13:32:33.359Z,25.92
2022-09-23T13:35:35.368Z,25.92
2022-09-23T13:38:11.262Z,25.64
2022-09-23T13:40:40.400Z,25.74
2022-09-23T13:43:23.490Z,25.68
2022-09-23T13:45:50.278Z,25.67
2022-09-23T13:48:18.272Z,25.53
2022-09-23T13:50:50.716Z,25.36
2022-09-23T13:53:32.658Z,25.40
2022-09-23T13:56:03.263Z,25.30
2022-09-23T13:58:31.773Z,25.26
2022-09-23T14:00:58.584Z,25.28
2022-09-23T14:03:26.753Z,25.13
2022-09-23T14:05:56.366Z,25.10
2022-09-23T14:08:23.621Z,25.13
2022-09-23T14:10:51.323Z,24.99
2022-09-23T14:13:26.059Z,24.85
2022-09-23T14:15:55.267Z,24.74
2022-09-23T14:18:28.817Z,24.70
2022-09-23T14:20:55.398Z,24.69
2022-09-23T14:23:21.929Z,24.73
2022-09-23T14:25:50.283Z,24.65
2022-09-23T14:28:22.762Z,24.60
2022-09-23T14:30:57.258Z,24.56
2022-09-23T14:33:32.222Z,24.60
2022-09-23T14:36:29.089Z,24.45
2022-09-23T14:39:05.205Z,24.46
2022-09-23T14:41:37.196Z,24.22
2022-09-23T14:44:04.931Z,24.37
2022-09-23T14:46:37.329Z,24.20
2022-09-23T14:49:16.519Z,24.13
2022-09-23T14:51:57.583Z,24.36
2022-09-23T14:54:31.358Z,24.38
2022-09-23T14:56:58.292Z,24.40
2022-09-23T14:59:28.811Z,24.26
2022-09-23T15:01:55.643Z,24.33
2022-09-23T15:04:22.079Z,24.27
2022-09-23T15:07:16.567Z,24.40
2022-09-23T15:09:44.957Z,24.44
2022-09-23T15:12:21.826Z,24.47
2022-09-23T15:14:54.676Z,24.56
2022-09-23T15:17:24.013Z,24.48
2022-09-23T15:19:57.511Z,24.60
2022-09-23T15:22:27.287Z,24.46
2022-09-23T15:25:07.988Z,24.30
2022-09-23T15:27:35.311Z,24.32
2022-09-23T15:30:15.168Z,24.47
2022-09-23T15:32:45.929Z,24.40
2022-09-23T15:35:18.924Z,24.42
2022-09-23T15:37:47.290Z,24.41
2022-09-23T15:40:20.976Z,24.31
2022-09-23T15:42:51.523Z,24.31
2022-09-23T15:45:27.953Z,24.34
2022-09-23T15:47:55.777Z,24.25
2022-09-23T15:50:22.732Z,24.30
2022-09-23T15:52:49.451Z,24.09
2022-09-23T15:55:22.241Z,23.95
2022-09-23T15:57:49.277Z,24.18
2022-09-23T16:00:16.507Z,24.13
2022-09-23T16:02:46.048Z,23.93
2022-09-23T16:05:37.729Z,24.07
2022-09-23T16:08:09.893Z,24.06
2022-09-23T16:10:37.493Z,23.93
2022-09-23T16:13:07.822Z,23.87
2022-09-23T16:15:34.470Z,23.93
2022-09-23T16:18:01.597Z,23.95
2022-09-23T16:20:30.329Z,23.95
2022-09-23T16:22:58.174Z,23.80
2022-09-23T16:25:28.294Z,23.74
2022-09-23T16:27:56.593Z,23.55
2022-09-23T16:30:25.400Z,23.40
2022-09-23T16:32:51.998Z,23.44
2022-09-23T16:35:22.936Z,23.29
2022-09-23T16:37:50.956Z,23.40
2022-09-23T16:40:20.650Z,23.40
2022-09-23T16:42:48.740Z,23.32
2022-09-23T16:45:22.397Z,23.24
2022-09-23T16:47:51.200Z,23.12
2022-09-23T16:50:20.139Z,23.16
2022-09-23T16:52:46.923Z,22.96
2022-09-23T16:55:14.270Z,22.96
2022-09-23T16:57:41.267Z,22.98
2022-09-23T17:00:31.807Z,22.90
2022-09-23T17:03:17.453Z,22.76
2022-09-23T17:05:46.599Z,22.81
2022-09-23T17:08:14.827Z,22.87
2022-09-23T17:10:43.061Z,22.94
2022-09-23T17:13:10.384Z,22.84
2022-09-23T17:15:38.505Z,22.83
2022-09-23T17:18:06.475Z,22.84
2022-09-23T17:20:33.549Z,22.73
2022-09-23T17:23:00.191Z,22.66
2022-09-23T17:25:27.122Z,22.64
2022-09-23T17:27:55.561Z,22.64
2022-09-23T17:30:22.078Z,22.72
2022-09-23T17:32:48.616Z,22.52
2022-09-23T17:35:15.295Z,22.44
2022-09-23T17:37:41.792Z,22.21
2022-09-23T17:40:08.914Z,22.34
2022-09-23T17:42:42.200Z,21.07
2022-09-23T17:45:12.443Z,21.16
2022-09-23T17:47:41.621Z,20.56
2022-09-23T17:50:08.816Z,20.26
2022-09-23T17:52:35.368Z,19.67
2022-09-23T17:55:01.851Z,19.81
2022-09-23T17:57:28.349Z,20.40
2022-09-23T17:59:56.102Z,19.78
2022-09-23T18:02:22.895Z,22.66
2022-09-23T18:04:49.738Z,20.45
2022-09-23T18:07:16.633Z,19.64
2022-09-23T18:09:43.155Z,19.64
2022-09-23T18:12:09.689Z,20.03
2022-09-23T18:14:36.216Z,20.44
2022-09-23T18:17:02.723Z,20.50
2022-09-23T18:19:29.520Z,20.84
2022-09-23T18:21:57.224Z,20.71
2022-09-23T18:24:33.029Z,20.85
2022-09-23T18:27:01.700Z,20.46
2022-09-23T18:29:28.630Z,19.97
2022-09-23T18:31:55.329Z,20.13
2022-09-23T18:34:22.054Z,19.18
2022-09-23T18:36:48.632Z,19.59
2022-09-23T18:39:15.165Z,19.27
2022-09-23T18:41:42.109Z,19.25
2022-09-23T18:44:09.594Z,19.36
2022-09-23T18:46:36.296Z,19.82
2022-09-23T18:49:21.455Z,19.64
2022-09-23T18:51:51.143Z,19.32
2022-09-23T18:54:18.352Z,19.22
2022-09-23T18:56:46.408Z,19.16
2022-09-23T18:59:16.681Z,19.36
2022-09-23T19:01:45.764Z,19.04
2022-09-23T19:04:14.285Z,19.35
2022-09-23T19:06:41.258Z,19.24
2022-09-23T19:09:12.214Z,19.12
2022-09-23T19:11:39.008Z,18.73
2022-09-23T19:14:09.168Z,18.87
2022-09-23T19:16:38.124Z,19.08
2022-09-23T19:19:05.668Z,18.97
2022-09-23T19:21:33.924Z,19.03
2022-09-23T19:24:04.382Z,19.02
2022-09-23T19:26:41.875Z,18.15
2022-09-23T19:29:13.831Z,22.12
2022-09-23T19:31:41.585Z,20.52
2022-09-23T19:34:15.994Z,19.99
2022-09-23T19:36:43.485Z,20.56
2022-09-23T19:39:22.176Z,19.22
2022-09-23T19:41:49.785Z,19.17
2022-09-23T19:44:16.652Z,19.57
2022-09-23T19:46:53.487Z,19.63
2022-09-23T19:49:23.945Z,19.29
2022-09-23T19:51:51.393Z,20.48
2022-09-23T19:54:21.062Z,19.79
2022-09-23T19:56:50.578Z,20.61
2022-09-23T19:59:19.028Z,19.80
2022-09-23T20:01:46.116Z,19.77
2022-09-23T20:04:12.819Z,19.79
2022-09-23T20:06:39.526Z,19.74
2022-09-23T20:09:06.892Z,19.25
2022-09-23T20:11:33.535Z,19.02
2022-09-23T20:14:03.334Z,18.77
2022-09-23T20:16:32.870Z,18.62
2022-09-23T20:19:00.247Z,18.59
2022-09-23T20:21:28.349Z,18.22
2022-09-23T20:23:55.070Z,18.45
2022-09-23T20:26:39.915Z,20.05
2022-09-23T20:29:06.980Z,18.05
2022-09-23T20:31:34.690Z,19.10
2022-09-23T20:34:05.579Z,19.07
2022-09-23T20:36:33.257Z,19.20
2022-09-23T20:39:02.024Z,19.03
2022-09-23T20:41:30.261Z,19.52
2022-09-23T20:43:59.439Z,19.40
2022-09-23T20:46:29.477Z,19.20
2022-09-23T20:48:56.804Z,19.45
2022-09-23T20:51:24.652Z,19.47
2022-09-23T20:53:52.991Z,19.44
2022-09-23T20:56:20.817Z,19.60
2022-09-23T20:58:48.660Z,19.77
2022-09-23T21:01:15.756Z,18.69
2022-09-23T21:03:44.592Z,18.60
2022-09-23T21:06:14.230Z,18.54
2022-09-23T21:08:41.665Z,18.88
2022-09-23T21:11:12.382Z,18.68
2022-09-23T21:13:39.948Z,18.50
2022-09-23T21:16:10.140Z,18.35
2022-09-23T21:18:38.014Z,18.40
2022-09-23T21:21:06.294Z,18.53
2022-09-23T21:23:38.218Z,18.53
2022-09-23T21:26:11.199Z,18.56
2022-09-23T21:28:40.678Z,18.01
2022-09-23T21:31:22.809Z,17.75
2022-09-23T21:33:53.810Z,17.82
2022-09-23T21:36:21.695Z,17.87
2022-09-23T21:38:48.254Z,17.98
2022-09-23T21:41:14.934Z,18.41
2022-09-23T21:43:41.852Z,18.33
2022-09-23T21:46:12.037Z,18.02
2022-09-23T21:48:43.375Z,18.05
2022-09-23T21:51:15.959Z,17.97
2022-09-23T21:53:43.953Z,17.99
2022-09-23T21:56:20.747Z,18.20
2022-09-23T21:58:47.838Z,17.89
2022-09-23T22:01:19.880Z,18.16
2022-09-23T22:03:52.331Z,17.67
2022-09-23T22:06:21.699Z,17.82
2022-09-23T22:08:54.807Z,18.27
2022-09-23T22:11:41.999Z,17.66
2022-09-23T22:14:11.709Z,17.97
2022-09-23T22:16:39.611Z,17.90
2022-09-23T22:19:07.135Z,17.87
2022-09-23T22:21:36.555Z,18.43
2022-09-23T22:24:08.295Z,18.55
2022-09-23T22:26:37.900Z,18.27
2022-09-23T22:29:24.598Z,18.31
2022-09-23T22:32:09.491Z,18.49
2022-09-23T22:34:49.549Z,18.04
2022-09-23T22:37:21.579Z,18.11
2022-09-23T22:39:48.147Z,18.53
2022-09-23T22:42:14.977Z,18.78
2022-09-23T22:44:41.694Z,18.57
2022-09-23T22:47:09.363Z,18.46
2022-09-23T22:49:36.313Z,18.26
2022-09-23T22:52:05.705Z,18.01
2022-09-23T22:54:34.142Z,18.16
2022-09-23T22:57:03.197Z,18.50
2022-09-23T22:59:29.962Z,18.39
2022-09-23T23:01:59.071Z,17.98
2022-09-23T23:04:25.928Z,18.10
2022-09-23T23:06:52.441Z,17.93
2022-09-23T23:09:19.307Z,17.64
2022-09-23T23:11:47.214Z,18.10
2022-09-23T23:14:16.617Z,18.13
2022-09-23T23:16:45.470Z,17.95
2022-09-23T23:19:14.907Z,17.89
2022-09-23T23:21:45.760Z,18.14
2022-09-23T23:24:17.841Z,18.84
2022-09-23T23:26:45.880Z,17.99
2022-09-23T23:29:14.461Z,18.89
2022-09-23T23:31:41.273Z,17.93
2022-09-23T23:34:11.938Z,17.56
2022-09-23T23:36:39.434Z,17.44
2022-09-23T23:39:06.995Z,17.76
2022-09-23T23:41:34.221Z,17.70
2022-09-23T23:44:01.175Z,17.55
2022-09-23T23:46:29.634Z,17.67
2022-09-23T23:48:57.554Z,17.92
2022-09-23T23:51:27.610Z,17.62
2022-09-23T23:53:54.974Z,17.44
2022-09-23T23:56:23.690Z,17.38
2022-09-23T23:59:01.564Z,17.69
